createdAt,value
2019-06-26T00:00:51.217Z,10.65
2019-06-26T00:03:19.440Z,10.90
2019-06-26T00:05:47.644Z,10.70
2019-06-26T00:08:15.883Z,10.70
2019-06-26T00:10:44.093Z,10.40
2019-06-26T00:13:25.034Z,11.30
2019-06-26T00:15:42.164Z,11.05
2019-06-26T00:18:10.391Z,10.95
2019-06-26T00:20:38.590Z,10.85
2019-06-26T00:23:06.815Z,10.78
2019-06-26T00:25:35.015Z,11.12
2019-06-26T00:28:03.252Z,10.58
2019-06-26T00:30:31.747Z,10.60
2019-06-26T00:32:59.972Z,11.20
2019-06-26T00:35:28.171Z,11.18
2019-06-26T00:37:56.401Z,11.88
2019-06-26T00:40:24.601Z,10.60
2019-06-26T00:42:52.839Z,10.53
2019-06-26T00:45:21.117Z,10.95
2019-06-26T00:47:49.484Z,11.08
2019-06-26T00:50:17.684Z,10.85
2019-06-26T00:52:45.908Z,10.43
2019-06-26T00:55:14.106Z,11.05
2019-06-26T00:57:42.330Z,10.80
2019-06-26T01:00:10.568Z,11.30
2019-06-26T01:02:38.788Z,11.08
2019-06-26T01:05:08.829Z,10.43
2019-06-26T01:07:37.031Z,11.20
2019-06-26T01:10:05.695Z,10.28
2019-06-26T01:12:33.897Z,10.72
2019-06-26T01:15:02.134Z,10.15
2019-06-26T01:17:30.334Z,10.25
2019-06-26T01:19:58.553Z,10.53
2019-06-26T01:22:26.746Z,10.20
2019-06-26T01:24:54.969Z,9.50
2019-06-26T01:27:23.172Z,10.15
2019-06-26T01:29:51.400Z,10.20
2019-06-26T01:32:19.604Z,11.10
2019-06-26T01:34:47.835Z,9.85
2019-06-26T01:37:16.039Z,10.70
2019-06-26T01:39:44.259Z,10.00
2019-06-26T01:42:12.464Z,10.82
2019-06-26T01:44:40.701Z,9.80
2019-06-26T01:47:08.916Z,10.32
2019-06-26T01:49:37.220Z,10.50
2019-06-26T01:52:05.440Z,9.58
2019-06-26T01:54:33.640Z,9.58
2019-06-26T01:57:01.868Z,10.10
2019-06-26T01:59:30.071Z,10.35
2019-06-26T02:01:58.301Z,10.05
2019-06-26T02:04:26.493Z,9.93
2019-06-26T02:06:54.718Z,10.13
2019-06-26T02:09:22.926Z,9.93
2019-06-26T02:11:51.165Z,9.63
2019-06-26T02:14:30.323Z,9.60
2019-06-26T02:16:49.212Z,10.23
2019-06-26T02:19:19.050Z,10.13
2019-06-26T02:21:47.282Z,10.05
2019-06-26T02:24:15.481Z,10.43
2019-06-26T02:26:43.678Z,10.15
2019-06-26T02:29:11.904Z,9.45
2019-06-26T02:31:40.100Z,9.40
2019-06-26T02:34:08.328Z,9.83
2019-06-26T02:36:36.618Z,9.38
2019-06-26T02:39:05.816Z,10.10
2019-06-26T02:41:34.483Z,10.43
2019-06-26T02:44:02.708Z,10.78
2019-06-26T02:46:30.910Z,10.30
2019-06-26T02:48:59.132Z,9.55
2019-06-26T02:51:27.326Z,9.73
2019-06-26T02:53:55.551Z,9.05
2019-06-26T02:56:23.747Z,9.58
2019-06-26T02:58:51.968Z,9.23
2019-06-26T03:01:20.171Z,9.38
2019-06-26T03:03:48.396Z,9.48
2019-06-26T03:06:16.592Z,9.43
2019-06-26T03:08:44.814Z,9.45
2019-06-26T03:11:13.019Z,9.08
2019-06-26T03:13:41.248Z,8.93
2019-06-26T03:16:09.435Z,8.58
2019-06-26T03:18:37.666Z,9.35
2019-06-26T03:21:05.868Z,8.83
2019-06-26T03:23:34.081Z,8.90
2019-06-26T03:26:02.296Z,8.95
2019-06-26T03:28:30.507Z,9.18
2019-06-26T03:30:58.876Z,8.58
2019-06-26T03:33:27.100Z,9.15
2019-06-26T03:35:55.299Z,8.73
2019-06-26T03:38:23.520Z,9.25
2019-06-26T03:40:51.758Z,8.85
2019-06-26T03:43:19.945Z,8.63
2019-06-26T03:45:48.205Z,8.63
2019-06-26T03:48:16.499Z,8.98
2019-06-26T03:50:44.700Z,9.45
2019-06-26T03:53:12.925Z,9.58
2019-06-26T03:55:41.116Z,9.40
2019-06-26T03:58:09.339Z,8.55
2019-06-26T04:00:41.273Z,9.83
2019-06-26T04:03:09.712Z,8.75
2019-06-26T04:05:37.872Z,8.93
2019-06-26T04:08:06.099Z,8.73
2019-06-26T04:10:34.955Z,8.60
2019-06-26T04:13:03.159Z,8.70
2019-06-26T04:15:41.287Z,8.65
2019-06-26T04:18:01.229Z,9.03
2019-06-26T04:20:29.467Z,9.25
2019-06-26T04:22:57.662Z,8.63
2019-06-26T04:25:25.879Z,8.33
2019-06-26T04:27:54.083Z,8.98
2019-06-26T04:30:22.304Z,9.33
2019-06-26T04:32:50.519Z,9.35
2019-06-26T04:35:18.718Z,8.70
2019-06-26T04:37:46.912Z,8.18
2019-06-26T04:40:15.135Z,8.65
2019-06-26T04:42:43.327Z,8.18
2019-06-26T04:45:11.548Z,8.60
2019-06-26T04:47:39.859Z,8.25
2019-06-26T04:50:08.040Z,7.75
2019-06-26T04:52:36.263Z,8.28
2019-06-26T04:55:05.437Z,7.65
2019-06-26T04:57:33.655Z,7.87
2019-06-26T05:00:02.013Z,8.43
2019-06-26T05:02:30.380Z,7.58
2019-06-26T05:04:58.577Z,7.45
2019-06-26T05:07:26.798Z,7.00
2019-06-26T05:09:54.987Z,7.28
2019-06-26T05:12:23.284Z,7.50
2019-06-26T05:14:51.476Z,7.40
2019-06-26T05:17:19.703Z,7.40
2019-06-26T05:19:47.915Z,7.30
2019-06-26T05:22:16.132Z,7.20
2019-06-26T05:24:46.421Z,7.95
2019-06-26T05:27:14.162Z,7.22
2019-06-26T05:29:42.384Z,7.00
2019-06-26T05:32:10.579Z,7.05
2019-06-26T05:34:38.801Z,6.85
2019-06-26T05:37:06.995Z,6.40
2019-06-26T05:39:35.232Z,7.15
2019-06-26T05:42:06.586Z,7.10
2019-06-26T05:44:33.302Z,7.45
2019-06-26T05:47:01.500Z,6.15
2019-06-26T05:49:29.715Z,6.05
2019-06-26T05:51:57.907Z,6.25
2019-06-26T05:54:26.202Z,6.00
2019-06-26T05:56:54.407Z,5.90
2019-06-26T05:59:22.624Z,6.10
2019-06-26T06:01:50.845Z,6.50
2019-06-26T06:04:19.084Z,6.70
2019-06-26T06:06:47.279Z,7.42
2019-06-26T06:09:15.503Z,6.20
2019-06-26T06:11:43.706Z,6.47
2019-06-26T06:14:11.935Z,6.25
2019-06-26T06:16:47.313Z,6.55
2019-06-26T06:19:10.012Z,6.85
2019-06-26T06:21:38.231Z,5.62
2019-06-26T06:24:06.432Z,6.55
2019-06-26T06:26:34.652Z,6.67
2019-06-26T06:29:03.215Z,9.63
2019-06-26T06:31:31.444Z,6.47
2019-06-26T06:33:59.710Z,5.83
2019-06-26T06:36:27.932Z,5.90
2019-06-26T06:38:56.132Z,6.37
2019-06-26T06:41:24.440Z,5.90
2019-06-26T06:43:52.668Z,5.67
2019-06-26T06:46:20.883Z,6.03
2019-06-26T06:48:49.086Z,5.80
2019-06-26T06:51:17.303Z,6.12
2019-06-26T06:53:45.506Z,5.92
2019-06-26T06:56:14.096Z,5.92
2019-06-26T06:58:42.303Z,6.28
2019-06-26T07:01:10.495Z,5.97
2019-06-26T07:03:38.743Z,5.55
2019-06-26T07:06:06.924Z,5.58
2019-06-26T07:08:35.144Z,5.90
2019-06-26T07:11:03.375Z,5.67
2019-06-26T07:13:31.560Z,5.90
2019-06-26T07:15:59.759Z,6.33
2019-06-26T07:18:27.984Z,6.80
2019-06-26T07:20:56.179Z,5.83
2019-06-26T07:23:24.405Z,5.58
2019-06-26T07:25:52.683Z,5.83
2019-06-26T07:28:21.015Z,6.75
2019-06-26T07:30:49.203Z,6.90
2019-06-26T07:33:17.497Z,5.60
2019-06-26T07:35:45.697Z,5.72
2019-06-26T07:38:13.926Z,5.47
2019-06-26T07:40:42.117Z,6.15
2019-06-26T07:43:10.336Z,6.30
2019-06-26T07:45:38.537Z,5.40
2019-06-26T07:48:06.768Z,5.85
2019-06-26T07:50:34.968Z,5.65
2019-06-26T07:53:03.188Z,5.78
2019-06-26T07:55:31.491Z,5.95
2019-06-26T07:57:59.759Z,5.97
2019-06-26T08:00:31.388Z,6.25
2019-06-26T08:02:57.843Z,5.78
2019-06-26T08:05:26.065Z,6.62
2019-06-26T08:07:54.282Z,5.80
2019-06-26T08:10:22.619Z,5.65
2019-06-26T08:12:50.987Z,5.70
2019-06-26T08:15:19.439Z,5.40
2019-06-26T08:17:59.812Z,6.28
2019-06-26T08:20:17.511Z,5.67
2019-06-26T08:22:45.708Z,5.20
2019-06-26T08:25:13.927Z,5.28
2019-06-26T08:27:42.143Z,5.67
2019-06-26T08:30:10.381Z,5.25
2019-06-26T08:32:38.688Z,5.75
2019-06-26T08:35:07.166Z,5.85
2019-06-26T08:37:35.360Z,5.17
2019-06-26T08:40:04.952Z,5.60
2019-06-26T08:42:33.177Z,6.00
2019-06-26T08:45:01.393Z,5.62
2019-06-26T08:47:29.622Z,5.47
2019-06-26T08:49:57.832Z,5.60
2019-06-26T08:52:26.040Z,6.35
2019-06-26T08:54:54.245Z,4.80
2019-06-26T08:57:22.468Z,5.17
2019-06-26T08:59:50.667Z,5.62
2019-06-26T09:02:18.899Z,6.65
2019-06-26T09:04:47.091Z,5.72
2019-06-26T09:07:15.312Z,5.45
2019-06-26T09:09:43.547Z,6.53
2019-06-26T09:12:11.775Z,5.53
2019-06-26T09:14:40.029Z,5.37
2019-06-26T09:17:08.204Z,5.37
2019-06-26T09:19:36.431Z,5.08
2019-06-26T09:22:04.632Z,5.05
2019-06-26T09:24:32.855Z,5.45
2019-06-26T09:27:01.052Z,5.33
2019-06-26T09:29:29.272Z,5.17
2019-06-26T09:31:57.478Z,31.87
2019-06-26T09:34:25.694Z,5.62
2019-06-26T09:36:53.906Z,6.22
2019-06-26T09:39:22.108Z,5.03
2019-06-26T09:41:50.303Z,5.50
2019-06-26T09:44:18.661Z,4.95
2019-06-26T09:46:46.829Z,4.58
2019-06-26T09:49:15.059Z,4.95
2019-06-26T09:51:43.295Z,4.58
2019-06-26T09:54:11.481Z,6.00
2019-06-26T09:56:39.680Z,5.65
2019-06-26T09:59:07.896Z,4.87
2019-06-26T10:01:36.115Z,5.28
2019-06-26T10:04:04.315Z,6.00
2019-06-26T10:06:32.540Z,4.67
2019-06-26T10:09:00.739Z,5.25
2019-06-26T10:11:28.965Z,4.75
2019-06-26T10:13:57.636Z,7.15
2019-06-26T10:16:25.856Z,5.17
2019-06-26T10:19:09.030Z,4.45
2019-06-26T10:21:23.918Z,4.78
2019-06-26T10:23:52.121Z,5.40
2019-06-26T10:26:20.343Z,5.03
2019-06-26T10:28:48.548Z,4.90
2019-06-26T10:31:18.529Z,4.55
2019-06-26T10:33:46.623Z,5.67
2019-06-26T10:36:14.847Z,5.87
2019-06-26T10:38:43.049Z,5.37
2019-06-26T10:41:11.265Z,6.87
2019-06-26T10:43:39.461Z,7.08
2019-06-26T10:46:07.683Z,5.15
2019-06-26T10:48:35.877Z,6.03
2019-06-26T10:51:04.103Z,6.75
2019-06-26T10:53:32.295Z,6.42
2019-06-26T10:56:00.525Z,6.33
2019-06-26T10:58:28.727Z,6.75
2019-06-26T11:00:56.915Z,6.42
2019-06-26T11:03:25.136Z,6.60
2019-06-26T11:05:53.343Z,6.60
2019-06-26T11:08:21.555Z,6.72
2019-06-26T11:10:49.811Z,7.45
2019-06-26T11:13:18.183Z,6.72
2019-06-26T11:15:46.385Z,6.83
2019-06-26T11:18:14.620Z,5.97
2019-06-26T11:20:42.823Z,6.55
2019-06-26T11:23:11.040Z,6.42
2019-06-26T11:25:39.241Z,6.97
2019-06-26T11:28:07.464Z,6.22
2019-06-26T11:30:35.659Z,5.75
2019-06-26T11:33:03.894Z,5.87
2019-06-26T11:35:32.086Z,6.87
2019-06-26T11:38:00.307Z,6.30
2019-06-26T11:40:28.503Z,6.40
2019-06-26T11:42:56.725Z,9.80
2019-06-26T11:45:24.923Z,6.83
2019-06-26T11:47:53.158Z,6.55
2019-06-26T11:50:21.387Z,6.10
2019-06-26T11:52:49.612Z,7.40
2019-06-26T11:55:17.807Z,6.70
2019-06-26T11:57:46.033Z,6.00
2019-06-26T12:00:15.509Z,6.67
2019-06-26T12:02:43.727Z,5.95
2019-06-26T12:05:12.047Z,6.03
2019-06-26T12:07:40.268Z,5.67
2019-06-26T12:10:08.739Z,6.20
2019-06-26T12:12:37.065Z,5.80
2019-06-26T12:15:05.742Z,5.10
2019-06-26T12:17:33.964Z,5.53
2019-06-26T12:20:17.300Z,6.30
2019-06-26T12:22:32.045Z,5.45
2019-06-26T12:25:00.523Z,5.67
2019-06-26T12:27:29.084Z,5.37
2019-06-26T12:29:57.271Z,5.90
2019-06-26T12:32:25.498Z,5.47
2019-06-26T12:34:53.713Z,4.45
2019-06-26T12:37:36.688Z,5.45
2019-06-26T12:39:51.772Z,5.35
2019-06-26T12:42:19.972Z,5.62
2019-06-26T12:44:48.188Z,4.35
2019-06-26T12:47:16.398Z,4.37
2019-06-26T12:49:44.689Z,5.35
2019-06-26T12:52:16.751Z,5.30
2019-06-26T12:54:42.753Z,5.35
2019-06-26T12:57:10.960Z,4.75
2019-06-26T12:59:55.622Z,4.35
2019-06-26T13:02:09.027Z,4.35
2019-06-26T13:04:37.251Z,4.87
2019-06-26T13:07:05.448Z,5.20
2019-06-26T13:09:33.714Z,5.55
2019-06-26T13:12:01.971Z,5.10
2019-06-26T13:14:30.191Z,4.60
2019-06-26T13:16:58.396Z,5.22
2019-06-26T13:19:26.714Z,5.12
2019-06-26T13:21:54.878Z,4.62
2019-06-26T13:24:23.107Z,5.08
2019-06-26T13:26:54.391Z,4.50
2019-06-26T13:29:21.531Z,4.83
2019-06-26T13:31:50.005Z,4.70
2019-06-26T13:34:18.523Z,4.97
2019-06-26T13:36:46.705Z,5.10
2019-06-26T13:39:15.049Z,5.05
2019-06-26T13:41:43.309Z,5.00
2019-06-26T13:44:11.528Z,5.40
2019-06-26T13:46:39.800Z,5.45
2019-06-26T13:49:08.096Z,5.37
2019-06-26T13:51:36.725Z,5.60
2019-06-26T13:54:05.171Z,6.97
2019-06-26T13:56:33.364Z,5.87
2019-06-26T13:59:01.612Z,4.85
2019-06-26T14:01:30.078Z,5.83
2019-06-26T14:03:58.287Z,5.20
2019-06-26T14:06:26.487Z,5.37
2019-06-26T14:08:55.370Z,5.37
2019-06-26T14:11:23.639Z,4.80
2019-06-26T14:13:51.944Z,5.12
2019-06-26T14:16:20.235Z,5.25
2019-06-26T14:18:49.149Z,5.25
2019-06-26T14:21:25.456Z,5.40
2019-06-26T14:23:47.390Z,5.15
2019-06-26T14:26:15.774Z,5.33
2019-06-26T14:28:44.239Z,4.65
2019-06-26T14:31:12.478Z,4.58
2019-06-26T14:33:40.659Z,5.10
2019-06-26T14:36:08.950Z,5.35
2019-06-26T14:38:37.277Z,5.20
2019-06-26T14:41:05.509Z,4.72
2019-06-26T14:43:33.711Z,5.05
2019-06-26T14:46:01.938Z,5.10
2019-06-26T14:48:30.174Z,5.20
2019-06-26T14:50:58.376Z,5.53
2019-06-26T14:53:26.663Z,4.55
2019-06-26T14:55:55.837Z,5.30
2019-06-26T14:58:24.155Z,6.10
2019-06-26T15:00:52.447Z,5.65
2019-06-26T15:03:20.756Z,6.05
2019-06-26T15:05:48.945Z,4.72
2019-06-26T15:08:17.170Z,5.62
2019-06-26T15:10:45.424Z,5.47
2019-06-26T15:13:13.621Z,5.75
2019-06-26T15:15:41.846Z,5.55
2019-06-26T15:18:11.412Z,5.28
2019-06-26T15:20:39.703Z,5.58
2019-06-26T15:23:07.971Z,6.20
2019-06-26T15:25:36.197Z,5.85
2019-06-26T15:28:04.407Z,5.10
2019-06-26T15:30:32.626Z,5.08
2019-06-26T15:33:00.821Z,5.28
2019-06-26T15:35:29.106Z,5.22
2019-06-26T15:37:57.311Z,5.15
2019-06-26T15:40:25.539Z,5.33
2019-06-26T15:42:53.812Z,5.47
2019-06-26T15:45:22.024Z,5.50
2019-06-26T15:47:50.233Z,5.28
2019-06-26T15:50:18.523Z,4.53
2019-06-26T15:52:46.716Z,5.22
2019-06-26T15:55:14.906Z,6.37
2019-06-26T15:57:43.136Z,5.92
2019-06-26T16:00:11.605Z,6.42
2019-06-26T16:02:39.822Z,5.50
2019-06-26T16:05:08.028Z,5.62
2019-06-26T16:07:36.263Z,5.83
2019-06-26T16:10:07.382Z,5.67
2019-06-26T16:12:35.680Z,5.25
2019-06-26T16:15:05.052Z,5.30
2019-06-26T16:17:34.915Z,5.83
2019-06-26T16:20:04.188Z,5.42
2019-06-26T16:22:32.994Z,5.40
2019-06-26T16:25:01.335Z,5.28
2019-06-26T16:27:29.520Z,5.42
2019-06-26T16:29:57.715Z,6.12
2019-06-26T16:32:25.955Z,6.17
2019-06-26T16:34:54.145Z,5.30
2019-06-26T16:37:22.366Z,4.83
2019-06-26T16:39:50.639Z,5.58
2019-06-26T16:42:19.120Z,5.85
2019-06-26T16:44:47.341Z,4.90
2019-06-26T16:47:15.620Z,5.30
2019-06-26T16:49:43.819Z,5.97
2019-06-26T16:52:12.079Z,5.35
2019-06-26T16:54:40.291Z,4.78
2019-06-26T16:57:08.516Z,5.28
2019-06-26T16:59:36.724Z,5.35
2019-06-26T17:02:07.110Z,4.97
2019-06-26T17:04:34.791Z,5.47
2019-06-26T17:07:03.019Z,5.45
2019-06-26T17:09:31.224Z,5.62
2019-06-26T17:11:59.451Z,5.12
2019-06-26T17:14:27.656Z,4.78
2019-06-26T17:16:55.935Z,5.20
2019-06-26T17:19:24.130Z,5.92
2019-06-26T17:21:52.351Z,4.58
2019-06-26T17:24:20.548Z,4.97
2019-06-26T17:26:48.770Z,4.65
2019-06-26T17:29:16.969Z,4.90
2019-06-26T17:31:45.236Z,5.62
2019-06-26T17:34:13.462Z,4.92
2019-06-26T17:36:41.728Z,4.83
2019-06-26T17:39:09.959Z,5.42
2019-06-26T17:41:38.161Z,5.28
2019-06-26T17:44:06.391Z,4.47
2019-06-26T17:46:34.579Z,4.33
2019-06-26T17:49:02.840Z,4.95
2019-06-26T17:51:31.039Z,5.12
2019-06-26T17:53:59.254Z,4.50
2019-06-26T17:56:27.455Z,4.35
2019-06-26T17:58:55.688Z,5.45
2019-06-26T18:01:23.879Z,4.12
2019-06-26T18:03:52.108Z,4.67
2019-06-26T18:06:20.309Z,4.70
2019-06-26T18:08:48.528Z,5.70
2019-06-26T18:11:16.796Z,5.47
2019-06-26T18:13:45.015Z,5.40
2019-06-26T18:16:13.213Z,5.33
2019-06-26T18:18:41.443Z,5.22
2019-06-26T18:21:09.640Z,5.00
2019-06-26T18:23:38.724Z,4.75
2019-06-26T18:26:13.078Z,4.75
2019-06-26T18:28:36.936Z,5.67
2019-06-26T18:31:05.146Z,6.15
2019-06-26T18:33:33.367Z,6.65
2019-06-26T18:36:01.632Z,5.65
2019-06-26T18:38:29.922Z,5.55
2019-06-26T18:40:58.152Z,5.53
2019-06-26T18:43:26.386Z,5.47
2019-06-26T18:45:54.580Z,5.50
2019-06-26T18:48:24.910Z,5.65
2019-06-26T18:50:52.657Z,5.37
2019-06-26T18:53:20.876Z,6.28
2019-06-26T18:55:49.073Z,6.00
2019-06-26T18:58:17.296Z,7.42
2019-06-26T19:00:45.492Z,6.25
2019-06-26T19:03:13.728Z,6.03
2019-06-26T19:05:41.934Z,5.87
2019-06-26T19:08:10.160Z,8.88
2019-06-26T19:10:38.392Z,6.90
2019-06-26T19:13:06.586Z,6.83
2019-06-26T19:15:34.810Z,5.90
2019-06-26T19:18:03.015Z,6.53
2019-06-26T19:20:33.826Z,6.37
2019-06-26T19:23:01.102Z,6.70
2019-06-26T19:25:29.327Z,7.10
2019-06-26T19:27:57.530Z,6.60
2019-06-26T19:30:25.746Z,6.00
2019-06-26T19:32:53.940Z,6.45
2019-06-26T19:35:22.165Z,7.35
2019-06-26T19:37:50.368Z,10.72
2019-06-26T19:40:18.591Z,7.55
2019-06-26T19:42:46.783Z,7.47
2019-06-26T19:45:15.012Z,6.58
2019-06-26T19:47:43.209Z,7.15
2019-06-26T19:50:11.431Z,7.25
2019-06-26T19:52:39.685Z,6.22
2019-06-26T19:55:07.976Z,6.75
2019-06-26T19:57:36.171Z,6.65
2019-06-26T20:00:05.417Z,7.33
2019-06-26T20:02:33.639Z,8.58
2019-06-26T20:05:01.839Z,8.30
2019-06-26T20:07:30.059Z,7.30
2019-06-26T20:10:01.623Z,7.60
2019-06-26T20:12:28.140Z,6.92
2019-06-26T20:14:56.340Z,7.22
2019-06-26T20:17:24.584Z,8.03
2019-06-26T20:19:52.775Z,8.20
2019-06-26T20:22:21.002Z,8.05
2019-06-26T20:24:49.196Z,9.15
2019-06-26T20:27:17.414Z,8.23
2019-06-26T20:29:45.619Z,8.45
2019-06-26T20:32:13.853Z,7.70
2019-06-26T20:34:42.072Z,8.30
2019-06-26T20:37:10.268Z,8.30
2019-06-26T20:39:38.496Z,8.18
2019-06-26T20:42:06.707Z,8.25
2019-06-26T20:44:34.929Z,8.23
2019-06-26T20:47:03.126Z,8.68
2019-06-26T20:49:31.347Z,8.28
2019-06-26T20:51:59.552Z,8.90
2019-06-26T20:54:27.780Z,9.13
2019-06-26T20:56:55.972Z,8.50
2019-06-26T20:59:24.199Z,8.25
2019-06-26T21:01:52.433Z,8.43
2019-06-26T21:04:20.658Z,8.93
2019-06-26T21:06:48.865Z,8.08
2019-06-26T21:09:17.087Z,9.08
2019-06-26T21:11:45.285Z,7.97
2019-06-26T21:14:13.512Z,8.78
2019-06-26T21:16:41.764Z,8.95
2019-06-26T21:19:09.983Z,9.10
2019-06-26T21:21:38.207Z,8.95
2019-06-26T21:24:06.408Z,8.88
2019-06-26T21:26:34.640Z,8.93
2019-06-26T21:29:02.839Z,8.58
2019-06-26T21:31:31.064Z,9.35
2019-06-26T21:33:59.415Z,8.60
2019-06-26T21:36:27.639Z,8.38
2019-06-26T21:38:55.836Z,8.90
2019-06-26T21:41:24.058Z,8.65
2019-06-26T21:43:52.251Z,9.53
2019-06-26T21:46:20.472Z,8.90
2019-06-26T21:48:48.674Z,9.28
2019-06-26T21:51:16.897Z,10.05
2019-06-26T21:53:45.100Z,9.50
2019-06-26T21:56:13.312Z,8.95
2019-06-26T21:58:41.503Z,9.48
2019-06-26T22:01:09.733Z,9.83
2019-06-26T22:03:37.955Z,9.05
2019-06-26T22:06:06.181Z,9.93
2019-06-26T22:08:34.446Z,9.03
2019-06-26T22:11:02.709Z,8.55
2019-06-26T22:13:30.930Z,9.50
2019-06-26T22:15:59.123Z,9.55
2019-06-26T22:18:27.349Z,9.60
2019-06-26T22:20:55.553Z,9.00
2019-06-26T22:23:23.772Z,9.65
2019-06-26T22:25:51.966Z,8.73
2019-06-26T22:28:20.192Z,9.75
2019-06-26T22:30:48.393Z,8.85
2019-06-26T22:33:16.616Z,8.90
2019-06-26T22:35:44.811Z,9.23
2019-06-26T22:38:13.037Z,9.63
2019-06-26T22:40:41.251Z,10.13
2019-06-26T22:43:09.499Z,10.72
2019-06-26T22:45:37.675Z,10.88
2019-06-26T22:48:05.895Z,17.10
2019-06-26T22:50:34.138Z,11.80
2019-06-26T22:53:02.324Z,9.63
2019-06-26T22:55:30.541Z,9.28
2019-06-26T22:57:58.736Z,9.03
2019-06-26T23:00:26.973Z,9.08
2019-06-26T23:02:55.172Z,9.83
2019-06-26T23:05:23.405Z,8.90
2019-06-26T23:07:51.617Z,9.03
2019-06-26T23:10:20.113Z,8.35
2019-06-26T23:12:48.321Z,8.40
2019-06-26T23:15:16.567Z,9.23
2019-06-26T23:17:44.764Z,9.63
2019-06-26T23:20:13.013Z,8.83
2019-06-26T23:22:41.213Z,8.85
2019-06-26T23:25:09.513Z,9.38
2019-06-26T23:27:37.712Z,9.45
2019-06-26T23:30:10.485Z,9.23
2019-06-26T23:32:38.696Z,9.05
2019-06-26T23:35:06.901Z,9.85
2019-06-26T23:37:35.128Z,9.00
2019-06-26T23:40:03.902Z,9.00
2019-06-26T23:42:32.132Z,9.65
2019-06-26T23:45:00.355Z,10.03
2019-06-26T23:47:28.574Z,9.65
2019-06-26T23:49:56.792Z,8.70
2019-06-26T23:52:25.011Z,9.18
2019-06-26T23:54:53.217Z,9.23
2019-06-26T23:57:21.444Z,9.55
2019-06-26T23:59:49.649Z,8.88
